createdAt,value
2022-10-06T00:00:05.611Z,7.24
2022-10-06T00:01:15.647Z,6.80
2022-10-06T00:01:56.662Z,5.69
2022-10-06T00:02:40.620Z,6.51
2022-10-06T00:03:23.010Z,6.85
2022-10-06T00:04:02.610Z,7.36
2022-10-06T00:04:42.587Z,8.81
2022-10-06T00:05:16.620Z,9.44
2022-10-06T00:06:08.570Z,6.41
2022-10-06T00:06:42.658Z,7.01
2022-10-06T00:07:29.628Z,6.68
2022-10-06T00:08:03.662Z,7.75
2022-10-06T00:08:51.528Z,7.78
2022-10-06T00:09:25.581Z,8.59
2022-10-06T00:10:05.672Z,8.81
2022-10-06T00:10:45.637Z,7.41
2022-10-06T00:11:25.558Z,7.45
2022-10-06T00:12:05.656Z,7.97
2022-10-06T00:12:57.521Z,9.35
2022-10-06T00:13:38.659Z,8.38
2022-10-06T00:14:18.524Z,7.82
2022-10-06T00:14:58.612Z,8.60
2022-10-06T00:15:39.629Z,9.95
2022-10-06T00:16:23.479Z,8.36
2022-10-06T00:17:03.555Z,6.63
2022-10-06T00:17:43.630Z,8.05
2022-10-06T00:18:24.716Z,9.24
2022-10-06T00:19:05.911Z,8.77
2022-10-06T00:19:45.521Z,8.10
2022-10-06T00:20:26.658Z,8.59
2022-10-06T00:21:07.545Z,8.16
2022-10-06T00:21:47.591Z,7.84
2022-10-06T00:22:27.511Z,8.34
2022-10-06T00:23:07.839Z,8.52
2022-10-06T00:23:48.525Z,9.40
2022-10-06T00:24:28.656Z,10.96
2022-10-06T00:25:09.528Z,9.45
2022-10-06T00:25:49.821Z,10.56
2022-10-06T00:26:29.544Z,11.93
2022-10-06T00:27:09.611Z,10.75
2022-10-06T00:27:51.527Z,10.20
2022-10-06T00:28:32.099Z,8.44
2022-10-06T00:29:12.520Z,10.65
2022-10-06T00:29:52.592Z,9.52
2022-10-06T00:30:34.532Z,8.70
2022-10-06T00:31:14.670Z,9.38
2022-10-06T00:31:54.558Z,8.66
2022-10-06T00:32:34.584Z,8.64
2022-10-06T00:33:19.495Z,8.34
2022-10-06T00:33:59.818Z,8.02
2022-10-06T00:34:39.512Z,8.21
2022-10-06T00:35:19.614Z,7.79
2022-10-06T00:36:04.533Z,6.95
2022-10-06T00:36:44.576Z,7.46
2022-10-06T00:37:24.552Z,8.15
2022-10-06T00:38:04.580Z,8.79
2022-10-06T00:38:44.504Z,8.46
2022-10-06T00:39:24.588Z,7.11
2022-10-06T00:40:04.541Z,7.85
2022-10-06T00:40:53.588Z,8.45
2022-10-06T00:41:33.508Z,9.89
2022-10-06T00:42:37.561Z,7.91
2022-10-06T00:44:10.512Z,6.20
2022-10-06T00:45:04.507Z,7.76
2022-10-06T00:46:02.521Z,7.84
2022-10-06T00:46:58.535Z,7.75
2022-10-06T00:47:52.530Z,7.25
2022-10-06T00:48:46.503Z,9.00
2022-10-06T00:49:44.509Z,9.00
2022-10-06T00:50:38.499Z,7.53
2022-10-06T00:51:33.503Z,8.05
2022-10-06T00:52:30.507Z,8.94
2022-10-06T00:53:17.541Z,8.40
2022-10-06T00:53:51.612Z,10.02
2022-10-06T00:54:39.488Z,9.81
2022-10-06T00:55:14.174Z,7.82
2022-10-06T00:56:01.491Z,8.90
2022-10-06T00:56:35.609Z,8.00
2022-10-06T00:57:22.521Z,6.55
2022-10-06T00:57:56.557Z,7.78
2022-10-06T00:58:37.523Z,9.05
2022-10-06T00:59:22.598Z,7.99
2022-10-06T01:00:03.482Z,9.48
2022-10-06T01:00:57.473Z,9.32
2022-10-06T01:01:53.578Z,8.79
2022-10-06T01:02:52.547Z,7.91
2022-10-06T01:03:48.564Z,8.63
2022-10-06T01:04:47.496Z,7.82
2022-10-06T01:05:44.496Z,7.38
2022-10-06T01:06:38.472Z,9.14
2022-10-06T01:07:34.488Z,9.10
2022-10-06T01:08:28.727Z,8.90
2022-10-06T01:09:08.525Z,8.56
2022-10-06T01:09:49.590Z,8.99
2022-10-06T01:10:29.478Z,7.30
2022-10-06T01:11:09.725Z,7.78
2022-10-06T01:11:50.489Z,8.00
2022-10-06T01:12:33.275Z,7.99
2022-10-06T01:13:16.478Z,6.99
2022-10-06T01:13:56.540Z,6.77
2022-10-06T01:14:36.581Z,6.57
2022-10-06T01:15:16.690Z,7.26
2022-10-06T01:15:59.544Z,8.11
2022-10-06T01:16:42.536Z,7.60
2022-10-06T01:17:40.520Z,6.95
2022-10-06T01:18:22.567Z,9.04
2022-10-06T01:19:02.473Z,8.27
2022-10-06T01:20:08.516Z,9.10
2022-10-06T01:21:09.469Z,8.84
2022-10-06T01:22:04.481Z,6.55
2022-10-06T01:23:08.481Z,7.29
2022-10-06T01:24:03.495Z,7.34
2022-10-06T01:25:00.510Z,6.56
2022-10-06T01:25:41.494Z,8.77
2022-10-06T01:26:22.537Z,8.68
2022-10-06T01:27:03.453Z,8.10
2022-10-06T01:27:45.737Z,8.94
2022-10-06T01:28:26.816Z,9.30
2022-10-06T01:29:07.524Z,7.03
2022-10-06T01:29:47.469Z,6.68
2022-10-06T01:30:39.538Z,6.72
2022-10-06T01:31:20.577Z,8.89
2022-10-06T01:32:00.775Z,10.40
2022-10-06T01:32:43.452Z,6.94
2022-10-06T01:33:23.713Z,7.74
2022-10-06T01:34:04.450Z,7.95
2022-10-06T01:34:44.549Z,8.23
2022-10-06T01:35:25.487Z,8.59
2022-10-06T01:36:05.586Z,10.90
2022-10-06T01:36:47.487Z,11.90
2022-10-06T01:37:27.572Z,9.56
2022-10-06T01:38:07.460Z,8.11
2022-10-06T01:38:47.569Z,6.91
2022-10-06T01:39:27.443Z,9.24
2022-10-06T01:40:07.568Z,9.48
2022-10-06T01:40:47.471Z,9.40
2022-10-06T01:41:27.759Z,9.66
2022-10-06T01:42:07.487Z,9.74
2022-10-06T01:42:47.711Z,10.73
2022-10-06T01:43:27.457Z,9.74
2022-10-06T01:44:07.505Z,10.10
2022-10-06T01:44:47.438Z,8.20
2022-10-06T01:45:27.498Z,7.70
2022-10-06T01:46:07.464Z,8.51
2022-10-06T01:46:47.566Z,7.95
2022-10-06T01:47:27.502Z,6.85
2022-10-06T01:48:07.536Z,6.80
2022-10-06T01:48:47.456Z,7.54
2022-10-06T01:49:27.556Z,8.80
2022-10-06T01:50:08.439Z,7.50
2022-10-06T01:50:48.549Z,7.74
2022-10-06T01:51:28.446Z,7.41
2022-10-06T01:52:09.521Z,7.75
2022-10-06T01:52:49.467Z,8.10
2022-10-06T01:53:29.872Z,8.81
2022-10-06T01:54:09.459Z,8.20
2022-10-06T01:54:49.535Z,7.86
2022-10-06T01:55:31.462Z,8.01
2022-10-06T01:56:11.514Z,9.05
2022-10-06T01:56:51.451Z,8.80
2022-10-06T01:57:31.500Z,7.69
2022-10-06T01:58:11.467Z,7.97
2022-10-06T01:58:51.497Z,7.00
2022-10-06T01:59:31.441Z,7.00
2022-10-06T02:00:11.515Z,7.86
2022-10-06T02:00:52.460Z,7.68
2022-10-06T02:01:32.576Z,8.51
2022-10-06T02:02:13.443Z,8.55
2022-10-06T02:02:53.523Z,7.35
2022-10-06T02:03:33.493Z,7.85
2022-10-06T02:04:13.575Z,9.34
2022-10-06T02:04:54.421Z,8.36
2022-10-06T02:05:34.547Z,7.61
2022-10-06T02:06:15.482Z,7.53
2022-10-06T02:06:55.570Z,7.24
2022-10-06T02:07:35.462Z,7.75
2022-10-06T02:08:16.052Z,6.85
2022-10-06T02:08:56.479Z,6.19
2022-10-06T02:09:36.511Z,6.06
2022-10-06T02:10:16.420Z,7.57
2022-10-06T02:10:56.488Z,6.64
2022-10-06T02:11:36.435Z,5.99
2022-10-06T02:12:16.495Z,5.90
2022-10-06T02:12:58.412Z,6.07
2022-10-06T02:13:38.541Z,7.41
2022-10-06T02:14:19.469Z,8.34
2022-10-06T02:14:59.495Z,6.70
2022-10-06T02:15:39.459Z,6.65
2022-10-06T02:16:19.627Z,5.93
2022-10-06T02:16:59.424Z,6.36
2022-10-06T02:17:40.112Z,6.05
2022-10-06T02:18:20.412Z,6.03
2022-10-06T02:19:00.518Z,5.96
2022-10-06T02:19:41.518Z,5.75
2022-10-06T02:20:21.509Z,7.31
2022-10-06T02:21:01.429Z,6.03
2022-10-06T02:21:42.006Z,6.18
2022-10-06T02:22:22.412Z,7.60
2022-10-06T02:23:02.477Z,7.63
2022-10-06T02:23:42.425Z,6.97
2022-10-06T02:24:22.495Z,7.56
2022-10-06T02:25:02.438Z,6.63
2022-10-06T02:25:42.519Z,6.69
2022-10-06T02:26:26.550Z,6.89
2022-10-06T02:27:06.919Z,8.00
2022-10-06T02:27:47.420Z,7.11
2022-10-06T02:28:28.006Z,6.32
2022-10-06T02:29:08.404Z,6.24
2022-10-06T02:29:49.273Z,7.13
2022-10-06T02:30:29.440Z,6.19
2022-10-06T02:31:11.580Z,5.59
2022-10-06T02:31:51.383Z,7.40
2022-10-06T02:32:31.465Z,7.84
2022-10-06T02:33:11.412Z,7.46
2022-10-06T02:33:51.711Z,6.30
2022-10-06T02:34:31.417Z,5.54
2022-10-06T02:35:15.207Z,6.51
2022-10-06T02:36:01.423Z,7.13
2022-10-06T02:36:42.688Z,6.47
2022-10-06T02:37:23.407Z,6.34
2022-10-06T02:38:03.487Z,6.11
2022-10-06T02:38:44.409Z,6.01
2022-10-06T02:39:24.481Z,6.15
2022-10-06T02:40:04.406Z,7.15
2022-10-06T02:40:44.480Z,6.16
2022-10-06T02:41:24.431Z,5.69
2022-10-06T02:42:04.471Z,5.60
2022-10-06T02:42:45.425Z,5.56
2022-10-06T02:43:39.409Z,6.05
2022-10-06T02:44:33.386Z,6.46
2022-10-06T02:45:27.411Z,6.84
2022-10-06T02:46:25.491Z,7.39
2022-10-06T02:47:22.417Z,6.04
2022-10-06T02:48:17.435Z,5.78
2022-10-06T02:49:11.399Z,6.09
2022-10-06T02:50:05.395Z,6.15
2022-10-06T02:50:59.377Z,6.30
2022-10-06T02:51:46.416Z,8.61
2022-10-06T02:52:20.477Z,9.93
2022-10-06T02:53:07.424Z,6.11
2022-10-06T02:53:42.464Z,6.22
2022-10-06T02:54:29.391Z,7.46
2022-10-06T02:55:04.101Z,8.46
2022-10-06T02:55:52.390Z,8.01
2022-10-06T02:56:29.445Z,10.43
2022-10-06T02:57:09.404Z,18.10
2022-10-06T02:57:49.454Z,18.76
2022-10-06T02:58:29.805Z,13.19
2022-10-06T02:59:10.462Z,10.54
2022-10-06T02:59:51.405Z,8.24
2022-10-06T03:00:31.559Z,8.30
2022-10-06T03:01:16.489Z,8.19
2022-10-06T03:01:56.508Z,7.38
2022-10-06T03:02:37.481Z,8.24
2022-10-06T03:03:17.460Z,8.07
2022-10-06T03:03:58.369Z,10.43
2022-10-06T03:04:38.463Z,11.70
2022-10-06T03:05:18.371Z,9.23
2022-10-06T03:06:06.474Z,8.98
2022-10-06T03:06:46.408Z,9.75
2022-10-06T03:07:26.486Z,8.66
2022-10-06T03:08:06.412Z,7.82
2022-10-06T03:08:46.516Z,8.35
2022-10-06T03:09:26.370Z,9.16
2022-10-06T03:10:06.453Z,9.76
2022-10-06T03:10:46.356Z,8.77
2022-10-06T03:11:28.467Z,9.23
2022-10-06T03:12:08.415Z,9.40
2022-10-06T03:12:48.440Z,7.30
2022-10-06T03:13:28.425Z,7.11
2022-10-06T03:14:08.465Z,7.55
2022-10-06T03:14:48.367Z,8.45
2022-10-06T03:15:28.706Z,8.19
2022-10-06T03:16:08.405Z,6.65
2022-10-06T03:16:51.611Z,6.86
2022-10-06T03:17:31.368Z,6.86
2022-10-06T03:18:12.532Z,7.79
2022-10-06T03:18:57.412Z,8.48
2022-10-06T03:19:37.463Z,9.02
2022-10-06T03:20:17.386Z,10.49
2022-10-06T03:20:57.424Z,9.55
2022-10-06T03:21:40.383Z,8.86
2022-10-06T03:22:20.503Z,8.73
2022-10-06T03:23:00.352Z,6.03
2022-10-06T03:23:40.411Z,6.34
2022-10-06T03:24:21.500Z,7.38
2022-10-06T03:25:02.051Z,9.55
2022-10-06T03:25:42.385Z,8.84
2022-10-06T03:26:23.453Z,9.45
2022-10-06T03:27:04.369Z,9.50
2022-10-06T03:27:58.401Z,11.34
2022-10-06T03:28:52.349Z,9.21
2022-10-06T03:29:40.379Z,8.31
2022-10-06T03:30:14.948Z,9.69
2022-10-06T03:31:09.441Z,11.41
2022-10-06T03:31:43.557Z,10.68
2022-10-06T03:32:30.409Z,11.57
2022-10-06T03:33:04.436Z,13.19
2022-10-06T03:33:51.393Z,15.73
2022-10-06T03:34:25.534Z,13.40
2022-10-06T03:35:05.380Z,12.45
2022-10-06T03:35:45.465Z,10.57
2022-10-06T03:36:27.339Z,11.20
2022-10-06T03:37:07.396Z,11.82
2022-10-06T03:37:47.325Z,13.02
2022-10-06T03:38:27.686Z,11.76
2022-10-06T03:39:10.392Z,9.81
2022-10-06T03:39:50.484Z,9.71
2022-10-06T03:40:30.393Z,10.89
2022-10-06T03:41:14.395Z,10.85
2022-10-06T03:41:54.343Z,10.14
2022-10-06T03:42:48.331Z,8.88
2022-10-06T03:43:42.375Z,8.40
2022-10-06T03:44:36.360Z,8.56
2022-10-06T03:45:30.391Z,7.60
2022-10-06T03:46:26.397Z,7.54
2022-10-06T03:47:20.346Z,9.43
2022-10-06T03:48:14.354Z,8.45
2022-10-06T03:49:09.331Z,8.24
2022-10-06T03:50:03.356Z,7.26
2022-10-06T03:50:52.361Z,7.46
2022-10-06T03:51:29.544Z,6.40
2022-10-06T03:52:16.366Z,6.39
2022-10-06T03:52:51.380Z,6.03
2022-10-06T03:53:39.321Z,6.09
2022-10-06T03:54:13.416Z,6.69
2022-10-06T03:55:00.334Z,7.04
2022-10-06T03:55:34.390Z,7.75
2022-10-06T03:56:26.364Z,8.05
2022-10-06T03:57:06.660Z,8.48
2022-10-06T03:57:46.350Z,8.13
2022-10-06T03:58:26.785Z,7.06
2022-10-06T03:59:12.337Z,6.47
2022-10-06T03:59:52.477Z,6.45
2022-10-06T04:00:33.371Z,6.28
2022-10-06T04:01:24.978Z,6.88
2022-10-06T04:02:06.531Z,6.46
2022-10-06T04:02:46.432Z,6.84
2022-10-06T04:03:26.352Z,8.18
2022-10-06T04:04:07.615Z,8.31
2022-10-06T04:04:47.328Z,7.55
2022-10-06T04:05:27.638Z,6.57
2022-10-06T04:06:10.325Z,6.32
2022-10-06T04:06:50.404Z,8.00
2022-10-06T04:07:30.472Z,7.63
2022-10-06T04:08:13.768Z,6.13
2022-10-06T04:08:56.330Z,6.09
2022-10-06T04:09:36.793Z,6.72
2022-10-06T04:10:17.318Z,7.18
2022-10-06T04:10:57.433Z,6.15
2022-10-06T04:11:40.311Z,6.07
2022-10-06T04:12:20.424Z,5.75
2022-10-06T04:13:00.351Z,7.18
2022-10-06T04:13:40.421Z,7.00
2022-10-06T04:14:22.321Z,6.69
2022-10-06T04:15:02.385Z,7.47
2022-10-06T04:15:42.301Z,7.19
2022-10-06T04:16:27.468Z,7.30
2022-10-06T04:17:08.323Z,7.07
2022-10-06T04:17:48.401Z,7.78
2022-10-06T04:18:28.764Z,8.34
2022-10-06T04:19:11.583Z,7.41
2022-10-06T04:19:51.312Z,6.18
2022-10-06T04:20:31.480Z,6.26
2022-10-06T04:21:12.307Z,7.07
2022-10-06T04:21:53.406Z,7.18
2022-10-06T04:22:33.303Z,7.05
2022-10-06T04:23:13.360Z,6.05
2022-10-06T04:23:54.356Z,5.95
2022-10-06T04:24:34.457Z,7.26
2022-10-06T04:25:14.307Z,8.21
2022-10-06T04:25:56.020Z,6.88
2022-10-06T04:26:39.321Z,6.20
2022-10-06T04:27:28.583Z,6.66
2022-10-06T04:28:08.418Z,6.93
2022-10-06T04:28:49.557Z,8.19
2022-10-06T04:29:30.427Z,8.69
2022-10-06T04:30:10.410Z,8.02
2022-10-06T04:30:50.317Z,7.14
2022-10-06T04:31:32.905Z,5.31
2022-10-06T04:32:14.328Z,6.07
2022-10-06T04:32:54.614Z,5.82
2022-10-06T04:33:35.320Z,5.36
2022-10-06T04:34:17.384Z,5.29
2022-10-06T04:34:57.351Z,5.56
2022-10-06T04:35:37.399Z,7.21
2022-10-06T04:36:20.361Z,7.95
2022-10-06T04:37:00.432Z,8.79
2022-10-06T04:37:41.303Z,7.53
2022-10-06T04:38:21.376Z,7.32
2022-10-06T04:39:05.330Z,6.93
2022-10-06T04:39:45.406Z,6.40
2022-10-06T04:40:25.340Z,6.95
2022-10-06T04:41:22.821Z,8.24
2022-10-06T04:42:02.304Z,6.74
2022-10-06T04:42:42.998Z,8.20
2022-10-06T04:43:24.335Z,9.39
2022-10-06T04:44:04.391Z,7.54
2022-10-06T04:44:44.312Z,7.29
2022-10-06T04:45:24.380Z,6.41
2022-10-06T04:46:23.982Z,7.90
2022-10-06T04:47:05.465Z,8.40
2022-10-06T04:47:46.284Z,6.36
2022-10-06T04:48:26.809Z,6.65
2022-10-06T04:49:08.313Z,8.36
2022-10-06T04:49:48.403Z,9.43
2022-10-06T04:50:28.342Z,10.71
2022-10-06T04:51:18.350Z,7.34
2022-10-06T04:52:12.313Z,5.85
2022-10-06T04:53:07.324Z,6.07
2022-10-06T04:54:01.310Z,7.20
2022-10-06T04:54:55.345Z,8.61
2022-10-06T04:55:49.314Z,8.02
2022-10-06T04:56:37.323Z,8.43
2022-10-06T04:57:11.408Z,10.70
2022-10-06T04:57:58.287Z,9.36
2022-10-06T04:58:32.813Z,7.60
2022-10-06T04:59:20.307Z,6.60
2022-10-06T05:00:15.086Z,7.56
2022-10-06T05:01:02.332Z,8.30
2022-10-06T05:01:46.345Z,7.60
2022-10-06T05:02:42.371Z,7.85
2022-10-06T05:03:36.338Z,7.88
2022-10-06T05:04:30.307Z,7.93
2022-10-06T05:05:24.298Z,7.91
2022-10-06T05:06:24.296Z,8.05
2022-10-06T05:07:12.315Z,9.04
2022-10-06T05:07:46.411Z,8.00
2022-10-06T05:08:33.539Z,7.47
2022-10-06T05:09:12.425Z,7.68
2022-10-06T05:09:59.308Z,8.02
2022-10-06T05:10:33.340Z,7.85
2022-10-06T05:11:23.672Z,7.22
2022-10-06T05:11:59.875Z,8.73
2022-10-06T05:12:40.299Z,9.02
2022-10-06T05:13:21.384Z,8.81
2022-10-06T05:14:03.321Z,10.10
2022-10-06T05:14:45.443Z,10.79
2022-10-06T05:15:25.274Z,9.44
2022-10-06T05:16:06.512Z,9.20
2022-10-06T05:16:46.315Z,9.98
2022-10-06T05:17:26.386Z,9.52
2022-10-06T05:18:06.333Z,9.91
2022-10-06T05:18:46.380Z,8.56
2022-10-06T05:19:26.292Z,8.11
2022-10-06T05:20:06.363Z,8.52
2022-10-06T05:20:46.283Z,10.13
2022-10-06T05:21:31.420Z,9.88
2022-10-06T05:22:11.309Z,8.71
2022-10-06T05:22:51.420Z,9.73
2022-10-06T05:23:34.335Z,12.94
2022-10-06T05:24:14.344Z,14.54
2022-10-06T05:24:57.287Z,13.43
2022-10-06T05:25:37.390Z,12.29
2022-10-06T05:26:19.289Z,12.61
2022-10-06T05:27:02.085Z,14.19
2022-10-06T05:27:42.303Z,13.02
2022-10-06T05:28:22.443Z,13.14
2022-10-06T05:29:02.298Z,16.31
2022-10-06T05:29:42.348Z,16.71
2022-10-06T05:30:22.289Z,16.24
2022-10-06T05:31:13.428Z,16.04
2022-10-06T05:31:53.389Z,17.84
2022-10-06T05:32:36.043Z,17.54
2022-10-06T05:33:18.279Z,18.60
2022-10-06T05:33:58.371Z,19.19
2022-10-06T05:34:38.341Z,19.13
2022-10-06T05:35:18.443Z,20.25
2022-10-06T05:36:03.300Z,18.79
2022-10-06T05:36:43.339Z,19.95
2022-10-06T05:37:24.293Z,20.74
2022-10-06T05:38:04.338Z,19.29
2022-10-06T05:38:44.277Z,18.08
2022-10-06T05:39:24.348Z,19.66
2022-10-06T05:40:04.324Z,20.61
2022-10-06T05:40:44.320Z,18.58
2022-10-06T05:41:36.240Z,17.26
2022-10-06T05:42:16.416Z,17.60
2022-10-06T05:42:56.281Z,19.06
2022-10-06T05:43:36.309Z,20.08
2022-10-06T05:44:22.365Z,17.66
2022-10-06T05:45:02.345Z,17.60
2022-10-06T05:45:42.375Z,16.95
2022-10-06T05:46:28.729Z,17.10
2022-10-06T05:47:09.237Z,17.40
2022-10-06T05:47:49.303Z,17.26
2022-10-06T05:48:30.733Z,16.54
2022-10-06T05:49:13.471Z,15.99
2022-10-06T05:49:53.285Z,16.55
2022-10-06T05:50:33.452Z,14.55
2022-10-06T05:51:16.259Z,14.09
2022-10-06T05:51:56.362Z,13.60
2022-10-06T05:52:36.250Z,14.01
2022-10-06T05:53:16.317Z,14.20
2022-10-06T05:53:56.274Z,12.36
2022-10-06T05:54:36.319Z,13.77
2022-10-06T05:55:16.324Z,14.68
2022-10-06T05:55:56.360Z,12.35
2022-10-06T05:56:41.294Z,12.13
2022-10-06T05:57:24.339Z,11.49
2022-10-06T05:58:04.237Z,10.88
2022-10-06T05:58:45.323Z,11.94
2022-10-06T05:59:26.248Z,12.15
2022-10-06T06:00:06.325Z,11.76
2022-10-06T06:00:46.213Z,10.65
2022-10-06T06:01:31.923Z,10.89
2022-10-06T06:03:17.255Z,9.68
2022-10-06T06:04:03.139Z,9.95
2022-10-06T06:04:43.269Z,9.35
2022-10-06T06:05:23.373Z,9.29
2022-10-06T06:06:06.233Z,10.25
2022-10-06T06:06:51.686Z,10.85
2022-10-06T06:07:32.274Z,10.02
2022-10-06T06:08:12.319Z,10.31
2022-10-06T06:08:52.329Z,8.32
2022-10-06T06:09:32.441Z,9.73
2022-10-06T06:10:13.269Z,9.34
2022-10-06T06:10:54.308Z,9.41
2022-10-06T06:11:38.242Z,10.86
2022-10-06T06:12:18.306Z,10.24
2022-10-06T06:13:00.293Z,10.05
2022-10-06T06:13:41.351Z,9.89
2022-10-06T06:14:26.251Z,8.82
2022-10-06T06:15:25.786Z,10.82
2022-10-06T06:16:07.219Z,9.64
2022-10-06T06:16:48.347Z,7.88
2022-10-06T06:17:31.237Z,9.32
2022-10-06T06:18:19.980Z,11.48
2022-10-06T06:18:53.929Z,10.09
2022-10-06T06:19:42.239Z,8.84
2022-10-06T06:20:15.871Z,9.24
2022-10-06T06:21:16.766Z,9.24
2022-10-06T06:21:52.225Z,12.32
2022-10-06T06:22:39.240Z,11.91
2022-10-06T06:23:12.705Z,7.93
2022-10-06T06:23:54.280Z,8.61
2022-10-06T06:24:28.344Z,9.74
2022-10-06T06:25:02.013Z,7.51
2022-10-06T06:25:44.636Z,6.82
2022-10-06T06:26:27.762Z,8.46
2022-10-06T06:27:01.752Z,8.74
2022-10-06T06:27:42.258Z,7.75
2022-10-06T06:28:16.379Z,8.66
2022-10-06T06:28:51.052Z,9.19
2022-10-06T06:29:31.263Z,8.40
2022-10-06T06:30:21.314Z,8.82
2022-10-06T06:31:08.462Z,9.24
2022-10-06T06:31:57.197Z,8.59
2022-10-06T06:32:34.234Z,9.11
2022-10-06T06:33:10.867Z,8.30
2022-10-06T06:34:06.295Z,8.34
2022-10-06T06:34:50.327Z,9.57
2022-10-06T06:35:32.493Z,7.69
2022-10-06T06:36:41.335Z,8.27
2022-10-06T06:37:15.546Z,9.05
2022-10-06T06:38:02.219Z,9.15
2022-10-06T06:38:59.241Z,8.74
2022-10-06T06:39:56.248Z,8.76
2022-10-06T06:40:55.492Z,9.98
2022-10-06T06:43:01.230Z,9.75
2022-10-06T06:43:42.476Z,7.93
2022-10-06T06:44:24.277Z,8.89
2022-10-06T06:45:12.279Z,11.13
2022-10-06T06:46:06.242Z,12.46
2022-10-06T06:47:07.211Z,10.49
2022-10-06T06:48:04.212Z,10.38
2022-10-06T06:48:58.261Z,9.74
2022-10-06T06:49:54.217Z,8.44
2022-10-06T06:50:35.233Z,10.61
2022-10-06T06:51:16.280Z,10.86
2022-10-06T06:51:57.214Z,10.25
2022-10-06T06:52:37.459Z,8.19
2022-10-06T06:53:43.247Z,8.39
2022-10-06T06:54:37.236Z,9.56
2022-10-06T06:55:34.201Z,11.49
2022-10-06T06:56:28.201Z,8.52
2022-10-06T06:57:30.221Z,8.63
2022-10-06T06:58:27.516Z,10.56
2022-10-06T06:59:24.181Z,11.91
2022-10-06T07:00:18.200Z,9.25
2022-10-06T07:00:59.335Z,7.66
2022-10-06T07:01:39.447Z,7.80
2022-10-06T07:02:21.300Z,7.06
2022-10-06T07:03:06.153Z,5.96
2022-10-06T07:03:57.523Z,6.36
2022-10-06T07:04:38.434Z,7.25
2022-10-06T07:05:19.822Z,8.04
2022-10-06T07:06:17.258Z,7.20
2022-10-06T07:07:11.247Z,7.24
2022-10-06T07:08:05.235Z,7.86
2022-10-06T07:09:00.225Z,9.25
2022-10-06T07:09:54.188Z,9.90
2022-10-06T07:10:48.264Z,10.18
2022-10-06T07:11:44.305Z,7.15
2022-10-06T07:12:18.412Z,6.40
2022-10-06T07:13:05.210Z,6.00
2022-10-06T07:13:42.937Z,6.85
2022-10-06T07:14:35.588Z,5.88
2022-10-06T07:15:28.070Z,6.19
2022-10-06T07:16:37.284Z,6.68
2022-10-06T07:17:36.265Z,7.57
2022-10-06T07:18:52.418Z,7.29
2022-10-06T07:19:58.190Z,7.09
2022-10-06T07:21:01.369Z,7.21
2022-10-06T07:22:06.364Z,8.48
2022-10-06T07:23:05.246Z,8.01
2022-10-06T07:24:04.055Z,6.21
2022-10-06T07:25:03.192Z,7.63
2022-10-06T07:25:43.256Z,8.64
2022-10-06T07:26:23.207Z,6.99
2022-10-06T07:27:03.383Z,6.53
2022-10-06T07:27:45.231Z,6.86
2022-10-06T07:28:25.255Z,8.48
2022-10-06T07:29:00.147Z,9.32
2022-10-06T07:29:33.663Z,8.39
2022-10-06T07:30:14.202Z,8.86
2022-10-06T07:30:48.279Z,9.44
2022-10-06T07:31:21.730Z,6.26
2022-10-06T07:32:02.189Z,7.43
2022-10-06T07:32:37.920Z,7.45
2022-10-06T07:33:11.771Z,6.18
2022-10-06T07:33:52.205Z,7.68
2022-10-06T07:34:26.245Z,7.69
2022-10-06T07:35:00.830Z,7.69
2022-10-06T07:35:41.159Z,8.14
2022-10-06T07:36:16.756Z,7.76
2022-10-06T07:36:54.225Z,6.72
2022-10-06T07:37:37.047Z,8.45
2022-10-06T07:38:10.272Z,7.70
2022-10-06T07:38:43.742Z,5.13
2022-10-06T07:39:24.290Z,5.76
2022-10-06T07:39:58.289Z,5.97
2022-10-06T07:40:31.694Z,6.22
2022-10-06T07:41:19.243Z,7.74
2022-10-06T07:41:56.706Z,7.40
2022-10-06T07:42:48.227Z,6.46
2022-10-06T07:43:28.156Z,6.93
2022-10-06T07:44:08.016Z,6.20
2022-10-06T07:44:49.249Z,7.25
2022-10-06T07:45:41.751Z,7.89
2022-10-06T07:46:22.213Z,9.49
2022-10-06T07:47:02.581Z,7.81
2022-10-06T07:47:46.148Z,6.04
2022-10-06T07:48:28.204Z,7.63
2022-10-06T07:49:08.204Z,8.43
2022-10-06T07:49:48.255Z,8.61
2022-10-06T07:50:29.200Z,7.03
2022-10-06T07:51:09.217Z,6.99
2022-10-06T07:51:50.225Z,7.50
2022-10-06T07:52:37.017Z,5.01
2022-10-06T07:53:20.202Z,5.97
2022-10-06T07:54:00.279Z,6.84
2022-10-06T07:54:41.170Z,6.47
2022-10-06T07:55:21.234Z,7.06
2022-10-06T07:56:11.175Z,7.34
2022-10-06T07:57:13.227Z,6.36
2022-10-06T07:57:53.160Z,6.14
2022-10-06T07:58:37.637Z,5.40
2022-10-06T07:59:25.380Z,6.51
2022-10-06T08:00:05.530Z,7.90
2022-10-06T08:00:47.154Z,8.21
2022-10-06T08:01:36.281Z,7.03
2022-10-06T08:02:10.411Z,8.27
2022-10-06T08:02:58.209Z,8.90
2022-10-06T08:03:31.777Z,9.27
2022-10-06T08:04:19.159Z,7.64
2022-10-06T08:04:52.983Z,7.80
2022-10-06T08:05:40.156Z,7.70
2022-10-06T08:06:23.736Z,5.84
2022-10-06T08:07:05.202Z,5.71
2022-10-06T08:07:58.487Z,6.29
2022-10-06T08:08:37.895Z,5.56
2022-10-06T08:09:18.133Z,6.63
2022-10-06T08:09:54.303Z,6.26
2022-10-06T08:12:58.180Z,6.44
2022-10-06T08:13:35.311Z,7.11
2022-10-06T08:15:36.258Z,6.26
2022-10-06T08:16:12.314Z,5.15
2022-10-06T08:16:45.976Z,5.57
2022-10-06T08:17:26.140Z,5.49
2022-10-06T08:19:17.018Z,4.84
2022-10-06T08:19:58.228Z,5.68
2022-10-06T08:20:38.122Z,6.54
2022-10-06T08:21:20.612Z,7.14
2022-10-06T08:22:05.042Z,7.63
2022-10-06T08:22:47.217Z,7.00
2022-10-06T08:23:27.114Z,7.30
2022-10-06T08:24:07.214Z,7.81
2022-10-06T08:25:04.652Z,9.32
2022-10-06T08:25:47.200Z,8.39
2022-10-06T08:26:29.121Z,18.65
2022-10-06T08:27:09.719Z,26.05
2022-10-06T08:27:53.368Z,9.46
2022-10-06T08:28:33.261Z,8.13
2022-10-06T08:29:13.095Z,5.94
2022-10-06T08:30:01.156Z,6.85
2022-10-06T08:30:34.753Z,6.44
2022-10-06T08:31:23.200Z,5.38
2022-10-06T08:31:59.366Z,5.53
2022-10-06T08:32:49.178Z,3.95
2022-10-06T08:33:22.662Z,3.80
2022-10-06T08:34:12.131Z,5.89
2022-10-06T08:34:45.824Z,9.13
2022-10-06T08:35:28.159Z,8.85
2022-10-06T08:36:02.165Z,6.34
2022-10-06T08:36:35.620Z,6.51
2022-10-06T08:37:20.159Z,6.66
2022-10-06T08:37:54.187Z,6.63
2022-10-06T08:38:27.647Z,6.05
2022-10-06T08:39:08.121Z,5.65
2022-10-06T08:39:44.967Z,4.97
2022-10-06T08:40:18.781Z,5.15
2022-10-06T08:40:59.232Z,5.55
2022-10-06T08:41:48.648Z,4.79
2022-10-06T08:42:37.631Z,4.21
2022-10-06T08:43:24.135Z,3.63
2022-10-06T08:44:11.216Z,5.55
2022-10-06T08:45:12.143Z,8.40
2022-10-06T08:45:50.337Z,7.55
2022-10-06T08:46:34.142Z,6.14
2022-10-06T08:47:22.691Z,6.61
2022-10-06T08:48:07.116Z,6.65
2022-10-06T08:48:47.164Z,8.50
2022-10-06T08:49:30.109Z,4.30
2022-10-06T08:50:12.874Z,5.78
2022-10-06T08:51:00.104Z,7.94
2022-10-06T08:52:08.128Z,5.96
2022-10-06T08:53:24.092Z,6.31
2022-10-06T08:54:29.108Z,6.53
2022-10-06T08:55:39.097Z,5.79
2022-10-06T08:56:35.125Z,5.82
2022-10-06T08:57:41.146Z,4.29
2022-10-06T08:59:05.105Z,4.88
2022-10-06T09:00:02.096Z,4.74
2022-10-06T09:00:56.210Z,4.85
2022-10-06T09:01:55.237Z,6.40
2022-10-06T09:02:50.262Z,7.34
2022-10-06T09:03:45.129Z,7.30
2022-10-06T09:04:41.098Z,6.61
2022-10-06T09:05:36.117Z,6.54
2022-10-06T09:07:00.111Z,5.26
2022-10-06T09:08:14.140Z,5.63
2022-10-06T09:09:13.091Z,6.76
2022-10-06T09:10:27.076Z,6.29
2022-10-06T09:11:42.109Z,4.24
2022-10-06T09:12:55.145Z,4.32
2022-10-06T09:13:49.115Z,5.18
2022-10-06T09:14:57.103Z,5.06
2022-10-06T09:15:57.138Z,6.30
2022-10-06T09:16:43.175Z,7.97
2022-10-06T09:17:33.121Z,4.97
2022-10-06T09:18:13.338Z,5.35
2022-10-06T09:19:08.827Z,5.75
2022-10-06T09:20:02.193Z,4.65
2022-10-06T09:20:51.085Z,4.50
2022-10-06T09:21:43.242Z,4.10
2022-10-06T09:22:29.076Z,4.49
2022-10-06T09:23:11.167Z,3.72
2022-10-06T09:24:03.114Z,3.71
2022-10-06T09:24:50.086Z,4.80
2022-10-06T09:25:35.117Z,6.31
2022-10-06T09:26:19.175Z,6.60
2022-10-06T09:27:00.088Z,4.91
2022-10-06T09:27:59.714Z,4.88
2022-10-06T09:28:54.072Z,5.56
2022-10-06T09:29:38.150Z,4.60
2022-10-06T09:30:21.140Z,4.64
2022-10-06T09:31:02.159Z,5.82
2022-10-06T09:31:53.227Z,6.14
2022-10-06T09:32:35.084Z,5.18
2022-10-06T09:33:25.180Z,5.05
2022-10-06T09:34:37.064Z,5.34
2022-10-06T09:35:28.073Z,7.66
2022-10-06T09:36:16.226Z,6.82
2022-10-06T09:37:16.096Z,5.22
2022-10-06T09:38:08.769Z,5.44
2022-10-06T09:39:02.062Z,4.49
2022-10-06T09:39:45.134Z,4.84
2022-10-06T09:40:51.147Z,5.00
2022-10-06T09:41:52.045Z,6.40
2022-10-06T09:42:46.099Z,6.78
2022-10-06T09:43:43.099Z,5.29
2022-10-06T09:44:40.089Z,6.22
2022-10-06T09:45:23.172Z,4.84
2022-10-06T09:46:26.177Z,3.94
2022-10-06T09:47:06.050Z,4.74
2022-10-06T09:47:47.183Z,5.39
2022-10-06T09:48:32.019Z,3.87
2022-10-06T09:49:14.187Z,4.25
2022-10-06T09:50:23.052Z,4.96
2022-10-06T09:51:22.089Z,6.44
2022-10-06T09:52:18.377Z,5.43
2022-10-06T09:53:07.094Z,4.01
2022-10-06T09:53:41.200Z,3.38
2022-10-06T09:54:28.027Z,4.38